sensor_id;sensor_type;location;lat;lon;timestamp;temperature;humidity
23827;DHT22;12094;50.822;4.376;2024-01-07T00:00:03;5.10;99.90
23827;DHT22;12094;50.822;4.376;2024-01-07T00:02:32;5.10;99.90
23827;DHT22;12094;50.822;4.376;2024-01-07T00:04:59;5.10;99.90
23827;DHT22;12094;50.822;4.376;2024-01-07T00:07:32;5.10;99.90
23827;DHT22;12094;50.822;4.376;2024-01-07T00:10:04;5.20;99.90
23827;DHT22;12094;50.822;4.376;2024-01-07T00:12:32;5.10;99.90
23827;DHT22;12094;50.822;4.376;2024-01-07T00:14:59;5.00;99.90
23827;DHT22;12094;50.822;4.376;2024-01-07T00:17:26;5.00;99.90
23827;DHT22;12094;50.822;4.376;2024-01-07T00:19:53;4.90;99.90
23827;DHT22;12094;50.822;4.376;2024-01-07T00:22:20;5.00;99.90
23827;DHT22;12094;50.822;4.376;2024-01-07T00:24:47;4.90;99.90
23827;DHT22;12094;50.822;4.376;2024-01-07T00:27:20;5.00;99.90
23827;DHT22;12094;50.822;4.376;2024-01-07T00:29:48;5.10;99.90
23827;DHT22;12094;50.822;4.376;2024-01-07T00:32:16;5.00;99.90
23827;DHT22;12094;50.822;4.376;2024-01-07T00:34:44;4.90;99.90
23827;DHT22;12094;50.822;4.376;2024-01-07T00:37:11;5.00;99.90
23827;DHT22;12094;50.822;4.376;2024-01-07T00:39:38;4.90;99.90
23827;DHT22;12094;50.822;4.376;2024-01-07T00:45:01;4.90;99.90
23827;DHT22;12094;50.822;4.376;2024-01-07T00:49:59;4.90;99.90
23827;DHT22;12094;50.822;4.376;2024-01-07T00:52:25;4.90;99.90
23827;DHT22;12094;50.822;4.376;2024-01-07T00:54:53;5.00;99.90
23827;DHT22;12094;50.822;4.376;2024-01-07T00:57:20;5.10;99.90
23827;DHT22;12094;50.822;4.376;2024-01-07T00:59:47;5.10;99.90
23827;DHT22;12094;50.822;4.376;2024-01-07T01:02:18;5.10;99.90
23827;DHT22;12094;50.822;4.376;2024-01-07T01:04:47;5.10;99.90
23827;DHT22;12094;50.822;4.376;2024-01-07T01:07:16;5.00;99.90
23827;DHT22;12094;50.822;4.376;2024-01-07T01:09:43;5.00;99.90
23827;DHT22;12094;50.822;4.376;2024-01-07T01:12:09;5.10;99.90
23827;DHT22;12094;50.822;4.376;2024-01-07T01:14:37;5.00;99.90
23827;DHT22;12094;50.822;4.376;2024-01-07T01:17:05;5.00;99.90
23827;DHT22;12094;50.822;4.376;2024-01-07T01:19:32;5.00;99.90
23827;DHT22;12094;50.822;4.376;2024-01-07T01:22:00;5.00;99.90
23827;DHT22;12094;50.822;4.376;2024-01-07T01:24:28;5.10;99.90
23827;DHT22;12094;50.822;4.376;2024-01-07T01:26:55;5.10;99.90
23827;DHT22;12094;50.822;4.376;2024-01-07T01:29:22;4.90;99.90
23827;DHT22;12094;50.822;4.376;2024-01-07T01:31:49;4.80;99.90
23827;DHT22;12094;50.822;4.376;2024-01-07T01:34:17;4.90;99.90
23827;DHT22;12094;50.822;4.376;2024-01-07T01:36:45;5.00;99.90
23827;DHT22;12094;50.822;4.376;2024-01-07T01:39:13;5.00;99.90
23827;DHT22;12094;50.822;4.376;2024-01-07T01:41:40;5.00;99.90
23827;DHT22;12094;50.822;4.376;2024-01-07T01:44:07;5.10;99.90
23827;DHT22;12094;50.822;4.376;2024-01-07T01:46:40;5.10;99.90
23827;DHT22;12094;50.822;4.376;2024-01-07T01:49:08;5.00;99.90
23827;DHT22;12094;50.822;4.376;2024-01-07T01:51:36;5.00;99.90
23827;DHT22;12094;50.822;4.376;2024-01-07T01:54:04;5.00;99.90
23827;DHT22;12094;50.822;4.376;2024-01-07T01:56:31;4.90;99.90
23827;DHT22;12094;50.822;4.376;2024-01-07T01:58:59;4.90;99.90
23827;DHT22;12094;50.822;4.376;2024-01-07T02:01:29;5.00;99.90
23827;DHT22;12094;50.822;4.376;2024-01-07T02:03:58;5.10;99.90
23827;DHT22;12094;50.822;4.376;2024-01-07T02:06:26;5.10;99.90
23827;DHT22;12094;50.822;4.376;2024-01-07T02:08:53;5.00;99.90
23827;DHT22;12094;50.822;4.376;2024-01-07T02:11:21;4.90;99.90
23827;DHT22;12094;50.822;4.376;2024-01-07T02:13:48;4.90;99.90
23827;DHT22;12094;50.822;4.376;2024-01-07T02:16:22;4.90;99.90
23827;DHT22;12094;50.822;4.376;2024-01-07T02:18:50;4.80;99.90
23827;DHT22;12094;50.822;4.376;2024-01-07T02:21:19;4.70;99.90
23827;DHT22;12094;50.822;4.376;2024-01-07T02:23:48;4.60;99.90
23827;DHT22;12094;50.822;4.376;2024-01-07T02:26:22;4.60;99.90
23827;DHT22;12094;50.822;4.376;2024-01-07T02:28:49;4.50;99.90
23827;DHT22;12094;50.822;4.376;2024-01-07T02:31:15;4.40;99.90
23827;DHT22;12094;50.822;4.376;2024-01-07T02:33:49;4.30;99.90
23827;DHT22;12094;50.822;4.376;2024-01-07T02:36:21;4.20;99.90
23827;DHT22;12094;50.822;4.376;2024-01-07T02:38:49;4.30;99.90
23827;DHT22;12094;50.822;4.376;2024-01-07T02:41:22;4.30;99.90
23827;DHT22;12094;50.822;4.376;2024-01-07T02:43:55;4.30;99.90
23827;DHT22;12094;50.822;4.376;2024-01-07T02:46:26;4.30;99.90
23827;DHT22;12094;50.822;4.376;2024-01-07T02:48:53;4.30;99.90
23827;DHT22;12094;50.822;4.376;2024-01-07T02:51:20;4.20;99.90
23827;DHT22;12094;50.822;4.376;2024-01-07T02:53:48;4.20;99.90
23827;DHT22;12094;50.822;4.376;2024-01-07T02:56:18;4.20;99.90
23827;DHT22;12094;50.822;4.376;2024-01-07T02:58:46;4.30;99.90
23827;DHT22;12094;50.822;4.376;2024-01-07T03:01:15;4.20;99.90
23827;DHT22;12094;50.822;4.376;2024-01-07T03:03:44;4.10;99.90
23827;DHT22;12094;50.822;4.376;2024-01-07T03:06:12;4.20;99.90
23827;DHT22;12094;50.822;4.376;2024-01-07T03:08:39;4.30;99.90
23827;DHT22;12094;50.822;4.376;2024-01-07T03:11:12;4.40;99.90
23827;DHT22;12094;50.822;4.376;2024-01-07T03:13:40;4.30;99.90
23827;DHT22;12094;50.822;4.376;2024-01-07T03:16:07;4.20;99.90
23827;DHT22;12094;50.822;4.376;2024-01-07T03:18:34;4.20;99.90
23827;DHT22;12094;50.822;4.376;2024-01-07T03:21:02;4.30;99.90
23827;DHT22;12094;50.822;4.376;2024-01-07T03:23:36;4.20;99.90
23827;DHT22;12094;50.822;4.376;2024-01-07T03:26:03;4.20;99.90
23827;DHT22;12094;50.822;4.376;2024-01-07T03:28:31;4.10;99.90
23827;DHT22;12094;50.822;4.376;2024-01-07T03:31:04;4.20;99.90
23827;DHT22;12094;50.822;4.376;2024-01-07T03:33:32;4.10;99.90
23827;DHT22;12094;50.822;4.376;2024-01-07T03:36:00;4.10;99.90
23827;DHT22;12094;50.822;4.376;2024-01-07T03:38:28;4.20;99.90
23827;DHT22;12094;50.822;4.376;2024-01-07T03:40:55;4.10;99.90
23827;DHT22;12094;50.822;4.376;2024-01-07T03:43:22;4.00;99.90
23827;DHT22;12094;50.822;4.376;2024-01-07T03:45:50;4.10;99.90
23827;DHT22;12094;50.822;4.376;2024-01-07T03:48:19;4.00;99.90
23827;DHT22;12094;50.822;4.376;2024-01-07T03:50:46;4.00;99.90
23827;DHT22;12094;50.822;4.376;2024-01-07T03:53:14;4.00;99.90
23827;DHT22;12094;50.822;4.376;2024-01-07T03:55:43;4.00;99.90
23827;DHT22;12094;50.822;4.376;2024-01-07T03:58:11;4.00;99.90
23827;DHT22;12094;50.822;4.376;2024-01-07T04:00:38;4.10;99.90
23827;DHT22;12094;50.822;4.376;2024-01-07T04:03:05;4.20;99.90
23827;DHT22;12094;50.822;4.376;2024-01-07T04:05:33;4.20;99.90
23827;DHT22;12094;50.822;4.376;2024-01-07T04:08:02;4.20;99.90
23827;DHT22;12094;50.822;4.376;2024-01-07T04:10:29;4.20;99.90
23827;DHT22;12094;50.822;4.376;2024-01-07T04:12:58;4.10;99.90
23827;DHT22;12094;50.822;4.376;2024-01-07T04:15:26;4.10;99.90
23827;DHT22;12094;50.822;4.376;2024-01-07T04:17:56;4.20;99.90
23827;DHT22;12094;50.822;4.376;2024-01-07T04:20:25;4.10;99.90
23827;DHT22;12094;50.822;4.376;2024-01-07T04:22:52;4.20;99.90
23827;DHT22;12094;50.822;4.376;2024-01-07T04:25:20;4.20;99.90
23827;DHT22;12094;50.822;4.376;2024-01-07T04:27:49;4.20;99.90
23827;DHT22;12094;50.822;4.376;2024-01-07T04:30:16;4.20;99.90
23827;DHT22;12094;50.822;4.376;2024-01-07T04:32:43;4.20;99.90
23827;DHT22;12094;50.822;4.376;2024-01-07T04:35:10;4.10;99.90
23827;DHT22;12094;50.822;4.376;2024-01-07T04:37:40;4.00;99.90
23827;DHT22;12094;50.822;4.376;2024-01-07T04:40:11;4.00;99.90
23827;DHT22;12094;50.822;4.376;2024-01-07T04:42:39;4.10;99.90
23827;DHT22;12094;50.822;4.376;2024-01-07T04:45:06;4.10;99.90
23827;DHT22;12094;50.822;4.376;2024-01-07T04:47:33;4.00;99.90
23827;DHT22;12094;50.822;4.376;2024-01-07T04:50:02;4.00;99.90
23827;DHT22;12094;50.822;4.376;2024-01-07T04:52:29;4.00;99.90
23827;DHT22;12094;50.822;4.376;2024-01-07T04:54:57;4.00;99.90
23827;DHT22;12094;50.822;4.376;2024-01-07T04:57:26;3.90;99.90
23827;DHT22;12094;50.822;4.376;2024-01-07T04:59:53;3.80;99.90
23827;DHT22;12094;50.822;4.376;2024-01-07T05:02:21;3.90;99.90
23827;DHT22;12094;50.822;4.376;2024-01-07T05:04:48;3.80;99.90
23827;DHT22;12094;50.822;4.376;2024-01-07T05:07:15;3.70;99.90
23827;DHT22;12094;50.822;4.376;2024-01-07T05:09:43;3.70;99.90
23827;DHT22;12094;50.822;4.376;2024-01-07T05:12:10;3.80;99.90
23827;DHT22;12094;50.822;4.376;2024-01-07T05:14:37;3.70;99.90
23827;DHT22;12094;50.822;4.376;2024-01-07T05:17:04;3.70;99.90
23827;DHT22;12094;50.822;4.376;2024-01-07T05:19:31;3.70;99.90
23827;DHT22;12094;50.822;4.376;2024-01-07T05:21:58;3.70;99.90
23827;DHT22;12094;50.822;4.376;2024-01-07T05:24:26;3.70;99.90
23827;DHT22;12094;50.822;4.376;2024-01-07T05:26:54;3.60;99.90
23827;DHT22;12094;50.822;4.376;2024-01-07T05:29:21;3.50;99.90
23827;DHT22;12094;50.822;4.376;2024-01-07T05:31:54;3.50;99.90
23827;DHT22;12094;50.822;4.376;2024-01-07T05:34:24;3.50;99.90
23827;DHT22;12094;50.822;4.376;2024-01-07T05:36:52;3.50;99.90
23827;DHT22;12094;50.822;4.376;2024-01-07T05:39:19;3.60;99.90
23827;DHT22;12094;50.822;4.376;2024-01-07T05:41:48;3.40;99.90
23827;DHT22;12094;50.822;4.376;2024-01-07T05:44:15;3.50;99.90
23827;DHT22;12094;50.822;4.376;2024-01-07T05:46:42;3.50;99.90
23827;DHT22;12094;50.822;4.376;2024-01-07T05:49:09;3.60;99.90
23827;DHT22;12094;50.822;4.376;2024-01-07T05:51:40;3.60;99.90
23827;DHT22;12094;50.822;4.376;2024-01-07T05:54:07;3.70;99.90
23827;DHT22;12094;50.822;4.376;2024-01-07T05:56:38;3.60;99.90
23827;DHT22;12094;50.822;4.376;2024-01-07T05:59:10;3.60;99.90
23827;DHT22;12094;50.822;4.376;2024-01-07T06:01:38;3.50;99.90
23827;DHT22;12094;50.822;4.376;2024-01-07T06:04:05;3.50;99.90
23827;DHT22;12094;50.822;4.376;2024-01-07T06:06:33;3.60;99.90
23827;DHT22;12094;50.822;4.376;2024-01-07T06:09:01;3.50;99.90
23827;DHT22;12094;50.822;4.376;2024-01-07T06:11:29;3.60;99.90
23827;DHT22;12094;50.822;4.376;2024-01-07T06:13:56;3.60;99.90
23827;DHT22;12094;50.822;4.376;2024-01-07T06:16:23;3.50;99.90
23827;DHT22;12094;50.822;4.376;2024-01-07T06:18:51;3.60;99.90
23827;DHT22;12094;50.822;4.376;2024-01-07T06:21:20;3.60;99.90
23827;DHT22;12094;50.822;4.376;2024-01-07T06:23:48;3.60;99.90
23827;DHT22;12094;50.822;4.376;2024-01-07T06:26:15;3.60;99.90
23827;DHT22;12094;50.822;4.376;2024-01-07T06:28:43;3.70;99.90
23827;DHT22;12094;50.822;4.376;2024-01-07T06:31:11;3.70;99.90
23827;DHT22;12094;50.822;4.376;2024-01-07T06:33:40;3.80;99.90
23827;DHT22;12094;50.822;4.376;2024-01-07T06:36:07;3.80;99.90
23827;DHT22;12094;50.822;4.376;2024-01-07T06:38:34;3.80;99.90
23827;DHT22;12094;50.822;4.376;2024-01-07T06:41:04;3.80;99.90
23827;DHT22;12094;50.822;4.376;2024-01-07T06:43:33;3.80;99.90
23827;DHT22;12094;50.822;4.376;2024-01-07T06:46:02;3.80;99.90
23827;DHT22;12094;50.822;4.376;2024-01-07T06:48:29;3.80;99.90
23827;DHT22;12094;50.822;4.376;2024-01-07T06:50:59;3.80;99.90
23827;DHT22;12094;50.822;4.376;2024-01-07T06:53:28;3.70;99.90
23827;DHT22;12094;50.822;4.376;2024-01-07T06:55:55;3.70;99.90
23827;DHT22;12094;50.822;4.376;2024-01-07T06:58:23;3.70;99.90
23827;DHT22;12094;50.822;4.376;2024-01-07T07:00:50;3.60;99.90
23827;DHT22;12094;50.822;4.376;2024-01-07T07:03:17;3.60;99.90
23827;DHT22;12094;50.822;4.376;2024-01-07T07:05:46;3.70;99.90
23827;DHT22;12094;50.822;4.376;2024-01-07T07:08:13;3.70;99.90
23827;DHT22;12094;50.822;4.376;2024-01-07T07:10:41;3.80;99.90
23827;DHT22;12094;50.822;4.376;2024-01-07T07:13:08;3.70;99.90
23827;DHT22;12094;50.822;4.376;2024-01-07T07:15:39;3.70;99.90
23827;DHT22;12094;50.822;4.376;2024-01-07T07:18:06;3.70;99.90
23827;DHT22;12094;50.822;4.376;2024-01-07T07:26:15;3.80;99.90
23827;DHT22;12094;50.822;4.376;2024-01-07T07:28:44;3.70;99.90
23827;DHT22;12094;50.822;4.376;2024-01-07T07:31:12;3.60;99.90
23827;DHT22;12094;50.822;4.376;2024-01-07T07:33:39;3.60;99.90
23827;DHT22;12094;50.822;4.376;2024-01-07T07:36:08;3.60;99.90
23827;DHT22;12094;50.822;4.376;2024-01-07T07:38:35;3.60;99.90
23827;DHT22;12094;50.822;4.376;2024-01-07T07:41:03;3.70;99.90
23827;DHT22;12094;50.822;4.376;2024-01-07T07:43:30;3.60;99.90
23827;DHT22;12094;50.822;4.376;2024-01-07T07:45:57;3.60;99.90
23827;DHT22;12094;50.822;4.376;2024-01-07T07:48:24;3.70;99.90
23827;DHT22;12094;50.822;4.376;2024-01-07T07:50:54;3.60;99.90
23827;DHT22;12094;50.822;4.376;2024-01-07T07:53:21;3.50;99.90
23827;DHT22;12094;50.822;4.376;2024-01-07T07:55:48;3.50;99.90
23827;DHT22;12094;50.822;4.376;2024-01-07T07:58:16;3.60;99.90
23827;DHT22;12094;50.822;4.376;2024-01-07T08:00:43;3.60;99.90
23827;DHT22;12094;50.822;4.376;2024-01-07T08:03:11;3.50;99.90
23827;DHT22;12094;50.822;4.376;2024-01-07T08:05:38;3.50;99.90
23827;DHT22;12094;50.822;4.376;2024-01-07T08:08:07;3.50;99.90
23827;DHT22;12094;50.822;4.376;2024-01-07T08:10:36;3.60;99.90
23827;DHT22;12094;50.822;4.376;2024-01-07T08:13:04;3.60;99.90
23827;DHT22;12094;50.822;4.376;2024-01-07T08:15:34;3.70;99.90
23827;DHT22;12094;50.822;4.376;2024-01-07T08:18:01;3.60;99.90
23827;DHT22;12094;50.822;4.376;2024-01-07T08:20:31;3.60;99.90
23827;DHT22;12094;50.822;4.376;2024-01-07T08:22:58;3.50;99.90
23827;DHT22;12094;50.822;4.376;2024-01-07T08:25:27;3.30;99.90
23827;DHT22;12094;50.822;4.376;2024-01-07T08:27:54;3.40;99.90
23827;DHT22;12094;50.822;4.376;2024-01-07T08:30:21;3.50;99.90
23827;DHT22;12094;50.822;4.376;2024-01-07T08:32:49;3.50;99.90
23827;DHT22;12094;50.822;4.376;2024-01-07T08:35:16;3.50;99.90
23827;DHT22;12094;50.822;4.376;2024-01-07T08:37:58;3.50;99.90
23827;DHT22;12094;50.822;4.376;2024-01-07T08:40:29;3.60;99.90
23827;DHT22;12094;50.822;4.376;2024-01-07T08:45:47;3.60;99.90
23827;DHT22;12094;50.822;4.376;2024-01-07T08:48:14;3.70;99.90
23827;DHT22;12094;50.822;4.376;2024-01-07T08:50:44;3.60;99.90
23827;DHT22;12094;50.822;4.376;2024-01-07T08:53:13;3.70;99.90
23827;DHT22;12094;50.822;4.376;2024-01-07T08:55:41;3.70;99.90
23827;DHT22;12094;50.822;4.376;2024-01-07T08:58:08;3.70;99.90
23827;DHT22;12094;50.822;4.376;2024-01-07T09:00:35;3.80;99.90
23827;DHT22;12094;50.822;4.376;2024-01-07T09:03:03;3.80;99.90
23827;DHT22;12094;50.822;4.376;2024-01-07T09:05:32;3.60;99.90
23827;DHT22;12094;50.822;4.376;2024-01-07T09:07:58;3.50;99.90
23827;DHT22;12094;50.822;4.376;2024-01-07T09:10:31;3.50;99.90
23827;DHT22;12094;50.822;4.376;2024-01-07T09:12:58;3.50;99.90
23827;DHT22;12094;50.822;4.376;2024-01-07T09:15:28;3.50;99.90
23827;DHT22;12094;50.822;4.376;2024-01-07T09:17:56;3.40;99.90
23827;DHT22;12094;50.822;4.376;2024-01-07T09:20:23;3.50;99.90
23827;DHT22;12094;50.822;4.376;2024-01-07T09:22:51;3.40;99.90
23827;DHT22;12094;50.822;4.376;2024-01-07T09:25:18;3.40;99.90
23827;DHT22;12094;50.822;4.376;2024-01-07T09:27:46;3.50;99.90
23827;DHT22;12094;50.822;4.376;2024-01-07T09:30:13;3.40;99.90
23827;DHT22;12094;50.822;4.376;2024-01-07T09:32:42;3.40;99.90
23827;DHT22;12094;50.822;4.376;2024-01-07T09:35:09;3.50;99.90
23827;DHT22;12094;50.822;4.376;2024-01-07T09:37:41;3.40;99.90
23827;DHT22;12094;50.822;4.376;2024-01-07T09:40:08;3.30;99.90
23827;DHT22;12094;50.822;4.376;2024-01-07T09:42:35;3.40;99.90
23827;DHT22;12094;50.822;4.376;2024-01-07T09:45:03;3.30;99.90
23827;DHT22;12094;50.822;4.376;2024-01-07T09:47:33;3.30;99.90
23827;DHT22;12094;50.822;4.376;2024-01-07T09:50:03;3.20;99.90
23827;DHT22;12094;50.822;4.376;2024-01-07T09:52:33;3.10;99.90
23827;DHT22;12094;50.822;4.376;2024-01-07T09:55:03;3.10;99.90
23827;DHT22;12094;50.822;4.376;2024-01-07T09:57:36;3.20;99.90
23827;DHT22;12094;50.822;4.376;2024-01-07T10:00:11;3.20;99.90
23827;DHT22;12094;50.822;4.376;2024-01-07T10:02:40;3.20;99.90
23827;DHT22;12094;50.822;4.376;2024-01-07T10:09:11;3.20;99.90
23827;DHT22;12094;50.822;4.376;2024-01-07T10:11:49;3.20;99.90
23827;DHT22;12094;50.822;4.376;2024-01-07T10:14:20;3.20;99.90
23827;DHT22;12094;50.822;4.376;2024-01-07T10:24:10;3.20;99.90
23827;DHT22;12094;50.822;4.376;2024-01-07T10:26:41;3.40;99.90
23827;DHT22;12094;50.822;4.376;2024-01-07T10:35:35;3.50;99.90
23827;DHT22;12094;50.822;4.376;2024-01-07T10:38:05;3.40;99.90
23827;DHT22;12094;50.822;4.376;2024-01-07T10:43:31;3.30;99.90
23827;DHT22;12094;50.822;4.376;2024-01-07T10:46:01;3.30;99.90
23827;DHT22;12094;50.822;4.376;2024-01-07T10:48:34;3.20;99.90
23827;DHT22;12094;50.822;4.376;2024-01-07T10:51:15;3.30;99.90
23827;DHT22;12094;50.822;4.376;2024-01-07T10:53:51;3.30;99.90
23827;DHT22;12094;50.822;4.376;2024-01-07T10:58:52;3.30;99.90
23827;DHT22;12094;50.822;4.376;2024-01-07T11:01:19;3.40;99.90
23827;DHT22;12094;50.822;4.376;2024-01-07T11:03:51;3.30;99.90
23827;DHT22;12094;50.822;4.376;2024-01-07T11:16:46;3.30;99.90
23827;DHT22;12094;50.822;4.376;2024-01-07T11:19:14;3.30;99.90
23827;DHT22;12094;50.822;4.376;2024-01-07T11:21:44;3.30;99.90
23827;DHT22;12094;50.822;4.376;2024-01-07T11:24:37;3.20;99.90
23827;DHT22;12094;50.822;4.376;2024-01-07T11:27:01;3.20;99.90
23827;DHT22;12094;50.822;4.376;2024-01-07T11:29:31;3.20;99.90
23827;DHT22;12094;50.822;4.376;2024-01-07T11:31:58;3.20;99.90
23827;DHT22;12094;50.822;4.376;2024-01-07T11:34:40;3.20;99.90
23827;DHT22;12094;50.822;4.376;2024-01-07T11:37:11;3.20;99.90
23827;DHT22;12094;50.822;4.376;2024-01-07T11:39:44;3.30;99.90
23827;DHT22;12094;50.822;4.376;2024-01-07T11:42:12;3.30;99.90
23827;DHT22;12094;50.822;4.376;2024-01-07T11:44:47;3.30;99.90
23827;DHT22;12094;50.822;4.376;2024-01-07T11:47:20;3.40;99.90
23827;DHT22;12094;50.822;4.376;2024-01-07T11:49:50;3.40;99.90
23827;DHT22;12094;50.822;4.376;2024-01-07T11:52:18;3.20;99.90
23827;DHT22;12094;50.822;4.376;2024-01-07T11:54:49;3.20;99.90
23827;DHT22;12094;50.822;4.376;2024-01-07T11:57:16;3.30;99.90
23827;DHT22;12094;50.822;4.376;2024-01-07T11:59:43;3.30;99.90
23827;DHT22;12094;50.822;4.376;2024-01-07T12:02:11;3.40;99.90
23827;DHT22;12094;50.822;4.376;2024-01-07T12:04:38;3.40;99.90
23827;DHT22;12094;50.822;4.376;2024-01-07T12:07:06;3.40;99.90
23827;DHT22;12094;50.822;4.376;2024-01-07T12:09:36;3.50;99.90
23827;DHT22;12094;50.822;4.376;2024-01-07T12:12:03;3.40;99.90
23827;DHT22;12094;50.822;4.376;2024-01-07T12:14:31;3.40;99.90
23827;DHT22;12094;50.822;4.376;2024-01-07T12:16:59;3.30;99.90
23827;DHT22;12094;50.822;4.376;2024-01-07T12:19:28;3.30;99.90
23827;DHT22;12094;50.822;4.376;2024-01-07T12:22:03;3.20;99.90
23827;DHT22;12094;50.822;4.376;2024-01-07T12:24:32;3.20;99.90
23827;DHT22;12094;50.822;4.376;2024-01-07T12:27:04;3.10;99.90
23827;DHT22;12094;50.822;4.376;2024-01-07T12:29:34;3.10;99.90
23827;DHT22;12094;50.822;4.376;2024-01-07T12:32:01;3.10;99.90
23827;DHT22;12094;50.822;4.376;2024-01-07T12:34:30;3.20;99.90
23827;DHT22;12094;50.822;4.376;2024-01-07T12:37:02;3.10;99.90
23827;DHT22;12094;50.822;4.376;2024-01-07T12:39:31;3.10;99.90
23827;DHT22;12094;50.822;4.376;2024-01-07T12:41:59;3.20;99.90
23827;DHT22;12094;50.822;4.376;2024-01-07T12:44:31;3.20;99.90
23827;DHT22;12094;50.822;4.376;2024-01-07T12:46:58;3.20;99.90
23827;DHT22;12094;50.822;4.376;2024-01-07T12:49:27;3.20;99.90
23827;DHT22;12094;50.822;4.376;2024-01-07T12:51:54;3.20;99.90
23827;DHT22;12094;50.822;4.376;2024-01-07T12:54:21;3.20;99.90
23827;DHT22;12094;50.822;4.376;2024-01-07T12:56:50;3.20;99.90
23827;DHT22;12094;50.822;4.376;2024-01-07T12:59:17;3.30;99.90
23827;DHT22;12094;50.822;4.376;2024-01-07T13:01:44;3.20;99.90
23827;DHT22;12094;50.822;4.376;2024-01-07T13:04:11;3.30;99.90
23827;DHT22;12094;50.822;4.376;2024-01-07T13:06:38;3.20;99.90
23827;DHT22;12094;50.822;4.376;2024-01-07T13:09:07;3.20;99.90
23827;DHT22;12094;50.822;4.376;2024-01-07T13:11:35;3.10;99.90
23827;DHT22;12094;50.822;4.376;2024-01-07T13:14:02;3.10;99.90
23827;DHT22;12094;50.822;4.376;2024-01-07T13:16:31;3.20;99.90
23827;DHT22;12094;50.822;4.376;2024-01-07T13:18:58;3.30;99.90
23827;DHT22;12094;50.822;4.376;2024-01-07T13:21:25;3.30;99.90
23827;DHT22;12094;50.822;4.376;2024-01-07T13:23:54;3.30;99.90
23827;DHT22;12094;50.822;4.376;2024-01-07T13:26:23;3.20;99.90
23827;DHT22;12094;50.822;4.376;2024-01-07T13:28:50;3.00;99.90
23827;DHT22;12094;50.822;4.376;2024-01-07T13:31:17;3.00;99.90
23827;DHT22;12094;50.822;4.376;2024-01-07T13:33:45;3.10;99.90
23827;DHT22;12094;50.822;4.376;2024-01-07T13:36:18;3.00;99.90
23827;DHT22;12094;50.822;4.376;2024-01-07T13:38:46;3.10;99.90
23827;DHT22;12094;50.822;4.376;2024-01-07T13:41:28;3.10;99.90
23827;DHT22;12094;50.822;4.376;2024-01-07T13:44:01;3.00;99.90
23827;DHT22;12094;50.822;4.376;2024-01-07T13:46:30;3.00;99.90
23827;DHT22;12094;50.822;4.376;2024-01-07T13:48:57;3.00;99.90
23827;DHT22;12094;50.822;4.376;2024-01-07T13:51:26;3.00;99.90
23827;DHT22;12094;50.822;4.376;2024-01-07T13:53:53;2.90;99.90
23827;DHT22;12094;50.822;4.376;2024-01-07T13:56:22;2.90;99.90
23827;DHT22;12094;50.822;4.376;2024-01-07T13:58:49;2.90;99.90
23827;DHT22;12094;50.822;4.376;2024-01-07T14:01:17;2.90;99.90
23827;DHT22;12094;50.822;4.376;2024-01-07T14:03:45;2.90;99.90
23827;DHT22;12094;50.822;4.376;2024-01-07T14:06:19;2.90;99.90
23827;DHT22;12094;50.822;4.376;2024-01-07T14:08:48;2.90;99.90
23827;DHT22;12094;50.822;4.376;2024-01-07T14:11:15;2.90;99.90
23827;DHT22;12094;50.822;4.376;2024-01-07T14:13:42;2.80;99.90
23827;DHT22;12094;50.822;4.376;2024-01-07T14:16:12;2.80;99.90
23827;DHT22;12094;50.822;4.376;2024-01-07T14:18:39;2.90;99.90
23827;DHT22;12094;50.822;4.376;2024-01-07T14:21:06;2.90;99.90
23827;DHT22;12094;50.822;4.376;2024-01-07T14:23:33;3.00;99.90
23827;DHT22;12094;50.822;4.376;2024-01-07T14:26:01;3.10;99.90
23827;DHT22;12094;50.822;4.376;2024-01-07T14:28:30;3.10;99.90
23827;DHT22;12094;50.822;4.376;2024-01-07T14:31:00;3.00;99.90
23827;DHT22;12094;50.822;4.376;2024-01-07T14:33:27;3.20;99.90
23827;DHT22;12094;50.822;4.376;2024-01-07T14:35:55;3.20;99.90
23827;DHT22;12094;50.822;4.376;2024-01-07T14:38:22;3.10;99.90
23827;DHT22;12094;50.822;4.376;2024-01-07T14:40:49;3.10;99.90
23827;DHT22;12094;50.822;4.376;2024-01-07T14:43:18;3.10;99.90
23827;DHT22;12094;50.822;4.376;2024-01-07T14:45:46;3.10;99.90
23827;DHT22;12094;50.822;4.376;2024-01-07T14:48:13;3.10;99.90
23827;DHT22;12094;50.822;4.376;2024-01-07T14:50:41;3.10;99.90
23827;DHT22;12094;50.822;4.376;2024-01-07T14:53:11;3.10;99.90
23827;DHT22;12094;50.822;4.376;2024-01-07T14:55:38;3.00;99.90
23827;DHT22;12094;50.822;4.376;2024-01-07T14:58:05;3.10;99.90
23827;DHT22;12094;50.822;4.376;2024-01-07T15:00:35;2.80;99.90
23827;DHT22;12094;50.822;4.376;2024-01-07T15:03:04;2.90;99.90
23827;DHT22;12094;50.822;4.376;2024-01-07T15:08:07;3.00;99.90
23827;DHT22;12094;50.822;4.376;2024-01-07T15:10:37;3.00;99.90
23827;DHT22;12094;50.822;4.376;2024-01-07T15:13:04;3.00;99.90
23827;DHT22;12094;50.822;4.376;2024-01-07T15:15:43;2.90;99.90
23827;DHT22;12094;50.822;4.376;2024-01-07T15:18:10;2.90;99.90
23827;DHT22;12094;50.822;4.376;2024-01-07T15:20:39;2.80;99.90
23827;DHT22;12094;50.822;4.376;2024-01-07T15:23:06;2.70;99.90
23827;DHT22;12094;50.822;4.376;2024-01-07T15:25:33;2.70;99.90
23827;DHT22;12094;50.822;4.376;2024-01-07T15:28:06;2.80;99.90
23827;DHT22;12094;50.822;4.376;2024-01-07T15:30:34;2.90;99.90
23827;DHT22;12094;50.822;4.376;2024-01-07T15:33:05;2.90;99.90
23827;DHT22;12094;50.822;4.376;2024-01-07T15:35:38;2.90;99.90
23827;DHT22;12094;50.822;4.376;2024-01-07T15:38:07;2.90;99.90
23827;DHT22;12094;50.822;4.376;2024-01-07T15:40:36;2.90;99.90
23827;DHT22;12094;50.822;4.376;2024-01-07T15:43:03;2.80;99.90
23827;DHT22;12094;50.822;4.376;2024-01-07T15:45:30;2.80;99.90
23827;DHT22;12094;50.822;4.376;2024-01-07T15:47:57;2.80;99.90
23827;DHT22;12094;50.822;4.376;2024-01-07T15:50:28;2.80;99.90
23827;DHT22;12094;50.822;4.376;2024-01-07T15:52:55;2.70;99.90
23827;DHT22;12094;50.822;4.376;2024-01-07T15:55:28;2.80;99.90
23827;DHT22;12094;50.822;4.376;2024-01-07T15:57:55;2.80;99.90
23827;DHT22;12094;50.822;4.376;2024-01-07T16:00:28;2.80;99.90
23827;DHT22;12094;50.822;4.376;2024-01-07T16:02:55;2.80;99.90
23827;DHT22;12094;50.822;4.376;2024-01-07T16:05:25;2.70;99.90
23827;DHT22;12094;50.822;4.376;2024-01-07T16:07:55;2.70;99.90
23827;DHT22;12094;50.822;4.376;2024-01-07T16:10:23;2.60;99.90
23827;DHT22;12094;50.822;4.376;2024-01-07T16:13:01;2.60;99.90
23827;DHT22;12094;50.822;4.376;2024-01-07T16:15:29;2.50;99.90
23827;DHT22;12094;50.822;4.376;2024-01-07T16:17:59;2.50;99.90
23827;DHT22;12094;50.822;4.376;2024-01-07T16:20:26;2.50;99.90
23827;DHT22;12094;50.822;4.376;2024-01-07T16:23:09;2.50;99.90
23827;DHT22;12094;50.822;4.376;2024-01-07T16:25:38;2.60;99.90
23827;DHT22;12094;50.822;4.376;2024-01-07T16:28:06;2.60;99.90
23827;DHT22;12094;50.822;4.376;2024-01-07T16:30:34;2.50;99.90
23827;DHT22;12094;50.822;4.376;2024-01-07T16:33:02;2.50;99.90
23827;DHT22;12094;50.822;4.376;2024-01-07T16:35:35;2.50;99.90
23827;DHT22;12094;50.822;4.376;2024-01-07T16:38:09;2.50;99.90
23827;DHT22;12094;50.822;4.376;2024-01-07T16:40:40;2.50;99.90
23827;DHT22;12094;50.822;4.376;2024-01-07T16:43:07;2.60;99.90